McMechen, West Virginia
Current Conditions -  °F | °C
As of 9:53 PM on Sunday 21 Dec 2014 (Local Time) from KHLG Reporting Station
Clear Clear  
Wind Chill: 21°   Ceiling: Unl
Heat Index: 28°   Visibility: 9mi
Dew Point: 21°   Wind: 7mph
Humidity: 75%   Direction: 90°E
Pressure: 30.19"   Gusts: NA
Location:  39.99°N, 80.73°W
Report Text: KHLG 220253Z AUTO 09006KT 9SM CLR M02/M06 A3019 RMK AO2 SLP241 T10221061 56006
Loading
Personal Weather Stations






























Interactive Weather Map New forecast layout! Learn more

10-Day Weather Forecast

Advertisements
Track Severe Weather on mobile